Time;durP1;ratioP1;P1;durP2;ratioP2;P2;SDS_P1;SDS_P2;PMS_P1;PMS_P2;Temp;Humidity;BMP_temperature;BMP_pressure;BME280_temperature;BME280_humidity;BME280_pressure;Samples;Min_cycle;Max_cycle;Signal;HPM_P1;HPM_P2
2021/07/11 00:00:08;;;;;;;22.50;10.07;;;14.40;99.90;;;13.30;100.00;103456.25;4920155;28;20078;-76
2021/07/11 00:02:34;;;;;;;17.58;10.80;;;14.60;99.90;;;13.48;100.00;103427.75;4901658;28;20688;-76
2021/07/11 00:05:03;;;;;;;20.17;10.63;;;14.70;99.90;;;13.39;100.00;103401.41;4897248;28;20056;-76
2021/07/11 00:07:32;;;;;;;19.13;10.70;;;14.60;99.90;;;13.26;100.00;103404.22;4903174;28;20559;-76
2021/07/11 00:09:58;;;;;;;25.13;10.43;;;14.50;99.90;;;13.18;100.00;103387.59;4917863;28;20444;-76
2021/07/11 00:12:29;;;;;;;16.88;9.93;;;14.50;99.90;;;13.22;100.00;103393.72;4925238;28;20529;-76
2021/07/11 00:14:55;;;;;;;27.15;10.18;;;14.50;99.90;;;13.16;100.00;103370.00;4987005;28;20075;-76
2021/07/11 00:17:22;;;;;;;18.35;9.63;;;14.40;99.90;;;13.04;100.00;103356.03;4984817;28;20067;-76
2021/07/11 00:19:48;;;;;;;23.33;9.48;;;14.30;99.90;;;12.99;100.00;103349.09;4993736;28;20102;-76
2021/07/11 00:22:14;;;;;;;17.13;9.80;;;14.20;99.90;;;12.90;100.00;103282.22;4898279;28;20051;-76
2021/07/11 00:24:40;;;;;;;23.00;11.40;;;14.20;99.90;;;12.99;100.00;103277.69;4894046;28;20507;-76
2021/07/11 00:27:10;;;;;;;21.05;12.73;;;14.30;99.90;;;13.08;100.00;103198.16;4886031;28;20423;-76
2021/07/11 00:29:36;;;;;;;22.02;12.20;;;14.30;99.90;;;13.08;100.00;103184.94;4904179;28;20072;-76
2021/07/11 00:32:03;;;;;;;27.50;13.38;;;14.40;99.90;;;13.13;100.00;103161.91;4992671;28;20134;-76
2021/07/11 00:34:29;;;;;;;24.75;12.40;;;14.40;99.90;;;13.14;100.00;103164.53;4977987;28;20071;-76
2021/07/11 00:36:57;;;;;;;20.10;13.10;;;14.40;99.90;;;13.14;100.00;103195.41;4904158;28;20090;-76
2021/07/11 00:39:23;;;;;;;26.70;13.50;;;14.40;99.90;;;13.21;100.00;103180.28;4888082;28;22317;-76
2021/07/11 00:41:49;;;;;;;24.35;13.93;;;14.40;99.90;;;13.20;100.00;103187.38;4880179;28;20067;-76
2021/07/11 00:44:15;;;;;;;20.55;12.98;;;14.40;99.90;;;13.10;100.00;103172.56;4912539;28;20423;-76
2021/07/11 00:46:45;;;;;;;26.75;12.77;;;14.30;99.90;;;13.14;100.00;103185.69;4881644;28;20092;-76
2021/07/11 00:49:11;;;;;;;21.23;11.93;;;14.40;99.90;;;13.17;100.00;103166.25;4908783;28;20072;-76
2021/07/11 00:51:41;;;;;;;24.35;12.55;;;14.50;99.90;;;13.28;100.00;103171.34;4888377;28;20530;-75
2021/07/11 00:54:06;;;;;;;19.92;12.05;;;14.60;99.90;;;13.26;100.00;103152.88;4886042;28;20066;-76
2021/07/11 00:56:32;;;;;;;21.83;11.93;;;14.50;99.90;;;13.22;100.00;103182.06;4994791;28;20080;-76
2021/07/11 00:58:59;;;;;;;17.67;11.68;;;14.50;99.90;;;13.23;100.00;103252.56;4903403;28;20092;-76
2021/07/11 01:02:09;;;;;;;21.48;10.93;;;14.50;99.90;;;13.22;100.00;103272.88;4909775;28;20052;-75
2021/07/11 01:04:56;;;;;;;26.13;10.32;;;14.50;99.90;;;13.18;100.00;103236.78;4902355;28;20133;-76
2021/07/11 01:07:36;;;;;;;20.90;9.90;;;14.40;99.90;;;13.09;100.00;103155.81;4899504;28;20431;-75
2021/07/11 01:10:15;;;;;;;19.70;9.25;;;14.40;99.90;;;13.05;100.00;103150.63;4903957;28;20058;-76
2021/07/11 01:12:47;;;;;;;21.63;9.15;;;14.40;99.90;;;13.02;100.00;103132.16;4889141;28;20189;-76
2021/07/11 01:15:14;;;;;;;14.45;9.13;;;14.30;99.90;;;13.06;100.00;103171.72;4861427;28;20053;-76
2021/07/11 01:17:41;;;;;;;23.17;10.63;;;14.50;99.90;;;13.25;100.00;103206.66;4907350;28;20063;-76
2021/07/11 01:20:29;;;;;;;18.33;10.88;;;14.50;99.90;;;13.34;100.00;103168.59;4900033;28;20157;-76
2021/07/11 01:22:57;;;;;;;25.77;11.23;;;14.60;99.90;;;13.44;100.00;103193.13;4909518;28;20506;-76
2021/07/11 01:25:48;;;;;;;18.95;10.52;;;14.70;99.90;;;13.46;100.00;103366.88;4992417;28;20059;-76
2021/07/11 01:28:20;;;;;;;18.15;10.85;;;14.80;99.90;;;13.55;100.00;103466.44;4891933;28;20437;-76
2021/07/11 01:30:51;;;;;;;26.30;10.77;;;14.80;99.90;;;13.47;100.00;103416.25;4908738;28;20062;-75
2021/07/11 01:33:20;;;;;;;19.02;10.52;;;14.80;99.90;;;13.42;100.00;103351.94;4871600;28;20423;-76
2021/07/11 01:35:47;;;;;;;19.15;10.38;;;14.70;99.90;;;13.40;100.00;103334.34;4903577;28;20163;-76
2021/07/11 01:38:15;;;;;;;16.13;10.05;;;14.70;99.90;;;13.39;100.00;103314.97;4983519;28;20073;-76
2021/07/11 01:40:43;;;;;;;28.02;9.77;;;14.70;99.90;;;13.37;100.00;103281.47;4879807;28;20058;-75
2021/07/11 01:43:11;;;;;;;19.38;10.35;;;14.70;99.90;;;13.37;100.00;103250.59;4975256;28;20521;-76
2021/07/11 01:45:38;;;;;;;17.00;9.80;;;14.70;99.90;;;13.37;100.00;103187.09;4992696;28;20131;-76
2021/07/11 01:48:05;;;;;;;25.00;10.43;;;14.60;99.90;;;13.34;100.00;103169.47;4942867;28;20079;-76
2021/07/11 01:50:32;;;;;;;16.20;9.40;;;14.60;99.90;;;13.36;100.00;103160.66;4911668;28;20112;-75
2021/07/11 01:53:01;;;;;;;16.70;9.45;;;14.70;99.90;;;13.34;100.00;103123.63;4986279;28;20412;-76
2021/07/11 01:55:28;;;;;;;17.40;8.65;;;14.70;99.90;;;13.34;100.00;103102.47;4992512;28;20060;-76
2021/07/11 01:57:54;;;;;;;26.90;9.85;;;14.60;99.90;;;13.32;100.00;103131.59;4973505;28;20618;-76
2021/07/11 02:00:22;;;;;;;17.13;9.63;;;14.60;99.90;;;13.29;100.00;103105.19;4886453;28;20531;-76
2021/07/11 02:02:49;;;;;;;16.05;8.80;;;14.60;99.90;;;13.29;100.00;103120.22;4922451;28;20495;-76
2021/07/11 02:05:18;;;;;;;16.05;9.40;;;14.60;99.90;;;13.26;100.00;103147.56;4889919;28;20103;-76
2021/07/11 02:07:46;;;;;;;23.27;8.98;;;14.50;99.90;;;13.23;100.00;102896.28;4985123;28;20067;-76
2021/07/11 02:10:16;;;;;;;17.88;8.65;;;14.60;99.90;;;13.25;100.00;103032.03;5000454;28;20075;-76
2021/07/11 02:12:53;;;;;;;19.95;9.02;;;14.60;99.90;;;13.24;100.00;103667.97;4988793;28;20645;-76
2021/07/11 02:15:19;;;;;;;16.50;8.05;;;14.50;99.90;;;13.11;100.00;103473.22;4968994;28;20070;-76
2021/07/11 02:17:51;;;;;;;25.83;7.47;;;14.40;99.90;;;13.08;100.00;103434.44;4968088;28;20064;-76
2021/07/11 02:20:17;;;;;;;18.83;8.82;;;14.40;99.90;;;13.11;100.00;103436.19;4900101;28;20065;-76
2021/07/11 02:22:47;;;;;;;14.48;8.20;;;14.50;99.90;;;13.18;100.00;103435.22;4861040;28;20056;-76
2021/07/11 02:25:19;;;;;;;22.00;9.05;;;14.50;99.90;;;13.22;100.00;103384.00;4901166;28;20082;-76
2021/07/11 02:27:47;;;;;;;21.77;10.40;;;14.60;99.90;;;13.38;100.00;103370.56;4885262;28;20443;-76
2021/07/11 02:30:23;;;;;;;18.05;10.23;;;14.70;99.90;;;13.42;100.00;103344.00;4888868;28;20054;-76
2021/07/11 02:32:51;;;;;;;24.53;11.70;;;14.70;99.90;;;13.45;100.00;103321.91;4978605;28;20104;-76
2021/07/11 02:35:36;;;;;;;21.95;11.15;;;14.80;99.90;;;13.47;100.00;103277.75;4892881;28;20675;-76
2021/07/11 02:38:05;;;;;;;32.00;10.18;;;14.80;99.90;;;13.47;100.00;103203.66;4984711;28;20076;-76
2021/07/11 02:40:36;;;;;;;31.52;9.15;;;14.80;99.90;;;13.40;100.00;103175.56;4912163;28;20066;-76
2021/07/11 02:43:07;;;;;;;32.35;9.27;;;14.70;99.90;;;13.35;100.00;103138.63;4889569;28;20056;-76
2021/07/11 02:45:36;;;;;;;29.90;9.00;;;14.70;99.90;;;13.37;100.00;103088.28;4883659;28;20069;-76
2021/07/11 02:48:04;;;;;;;26.20;8.73;;;14.80;99.90;;;13.41;100.00;103079.38;4951766;28;20104;-76
2021/07/11 02:50:34;;;;;;;26.15;9.50;;;14.80;99.90;;;13.46;100.00;103081.03;4862778;28;20086;-76
2021/07/11 02:53:02;;;;;;;25.50;10.13;;;14.80;99.90;;;13.51;100.00;103067.69;4953332;28;20073;-76
2021/07/11 02:55:35;;;;;;;24.52;9.65;;;14.90;99.90;;;13.58;100.00;103079.03;4889053;28;20516;-75
2021/07/11 02:58:13;;;;;;;23.92;9.70;;;14.90;99.90;;;13.64;100.00;103032.09;4905855;28;20094;-76
2021/07/11 03:00:44;;;;;;;17.55;10.23;;;14.90;99.90;;;13.71;100.00;103044.31;4907566;28;20526;-76
2021/07/11 03:03:18;;;;;;;17.55;11.23;;;15.00;99.90;;;13.74;100.00;103023.06;4927991;28;20062;-76
2021/07/11 03:05:44;;;;;;;23.88;12.00;;;15.10;99.90;;;13.78;100.00;103026.50;4887210;28;20062;-76
2021/07/11 03:08:10;;;;;;;31.27;13.02;;;15.10;99.90;;;13.79;100.00;102972.63;4999642;28;20416;-76
2021/07/11 03:10:39;;;;;;;21.05;11.90;;;15.10;99.90;;;13.81;100.00;102984.06;4978634;28;20072;-76
2021/07/11 03:13:06;;;;;;;21.63;11.90;;;15.10;99.90;;;13.86;100.00;103053.66;4975138;28;20055;-76
2021/07/11 03:15:32;;;;;;;24.50;12.77;;;15.20;99.90;;;13.95;100.00;102962.53;4939995;28;20446;-76
2021/07/11 03:18:02;;;;;;;33.75;14.70;;;15.30;99.90;;;14.10;100.00;102775.81;4943605;28;20080;-76
2021/07/11 03:20:30;;;;;;;32.20;14.70;;;15.40;99.90;;;14.15;100.00;102822.47;4975284;28;20074;-76
2021/07/11 03:22:57;;;;;;;27.38;15.77;;;15.40;99.90;;;14.20;100.00;102864.72;4932391;28;20065;-76
2021/07/11 03:25:24;;;;;;;31.63;15.98;;;15.50;99.90;;;14.34;100.00;102795.44;4948051;28;20150;-76
2021/07/11 03:27:51;;;;;;;30.27;15.52;;;15.60;99.90;;;14.31;100.00;102722.19;4929901;28;20067;-76
2021/07/11 03:30:22;;;;;;;28.13;16.73;;;15.70;99.90;;;14.42;100.00;102936.56;4978594;28;20393;-76
2021/07/11 03:32:58;;;;;;;37.08;17.85;;;15.70;99.90;;;14.59;100.00;102882.25;4915235;28;20492;-76
2021/07/11 03:35:45;;;;;;;47.13;18.83;;;15.80;99.90;;;14.60;100.00;102923.72;4968624;28;20062;-76
2021/07/11 03:38:23;;;;;;;34.92;18.42;;;15.80;99.90;;;14.64;100.00;102875.00;4898975;28;20421;-76
2021/07/11 03:40:59;;;;;;;35.42;18.65;;;15.90;99.90;;;14.65;100.00;102858.19;4899986;28;20063;-76
2021/07/11 03:43:28;;;;;;;36.00;19.10;;;15.80;99.90;;;14.68;100.00;102962.38;4871048;28;20142;-76
2021/07/11 03:46:00;;;;;;;49.63;18.83;;;15.90;99.90;;;14.70;100.00;102989.72;4999465;28;20142;-76
2021/07/11 03:48:53;;;;;;;40.10;17.25;;;16.00;99.90;;;14.72;100.00;102997.63;4895427;28;20081;-76
2021/07/11 03:51:31;;;;;;;31.60;17.73;;;16.00;99.90;;;14.74;100.00;102970.16;4976418;28;20109;-76
2021/07/11 03:54:02;;;;;;;35.67;18.33;;;16.00;99.90;;;14.81;100.00;102879.81;4911511;28;20070;-76
2021/07/11 03:56:31;;;;;;;39.33;17.25;;;16.10;99.90;;;14.85;100.00;102900.88;4976148;28;20054;-76
2021/07/11 03:58:59;;;;;;;36.85;18.50;;;16.10;99.90;;;14.87;100.00;102912.31;5007040;28;20054;-76
2021/07/11 04:01:35;;;;;;;32.15;17.13;;;16.10;99.90;;;14.90;100.00;102903.41;4979375;28;20437;-76
2021/07/11 04:04:06;;;;;;;29.73;17.98;;;16.10;99.90;;;14.95;100.00;102883.78;4887452;28;20096;-77
2021/07/11 04:06:36;;;;;;;35.00;17.13;;;16.20;99.90;;;15.00;100.00;102936.69;4894614;28;20063;-76
2021/07/11 04:09:04;;;;;;;32.05;16.95;;;16.20;99.90;;;15.03;100.00;102914.50;4879642;28;20515;-76
2021/07/11 04:11:35;;;;;;;40.85;16.30;;;16.30;99.90;;;15.09;100.00;102944.38;4885586;28;20097;-76
2021/07/11 04:14:03;;;;;;;33.22;16.50;;;16.40;99.90;;;15.13;100.00;102910.66;4886279;28;20073;-76
2021/07/11 04:16:33;;;;;;;31.17;16.48;;;16.40;99.90;;;15.19;100.00;102921.09;4971413;28;20141;-76
2021/07/11 04:19:01;;;;;;;30.77;16.77;;;16.40;99.90;;;15.23;100.00;102946.63;4935469;28;20080;-76
2021/07/11 04:21:32;;;;;;;36.88;16.42;;;16.50;99.90;;;15.30;100.00;102963.22;4912116;28;20101;-76
2021/07/11 04:23:59;;;;;;;34.25;16.40;;;16.50;99.90;;;15.29;100.00;102909.28;4897588;28;20434;-76
2021/07/11 04:26:26;;;;;;;27.70;15.90;;;16.50;99.90;;;15.37;100.00;102962.97;4975918;28;22740;-76
2021/07/11 04:28:53;;;;;;;35.20;15.55;;;16.60;99.90;;;15.46;100.00;102929.09;4983793;28;20146;-76
2021/07/11 04:31:20;;;;;;;32.97;14.85;;;16.70;99.90;;;15.53;100.00;102955.41;4904060;28;20107;-76
2021/07/11 04:33:50;;;;;;;33.28;14.93;;;16.80;99.90;;;15.62;100.00;102930.34;4973895;28;20489;-76
2021/07/11 04:36:15;;;;;;;22.75;14.63;;;16.90;99.90;;;15.73;100.00;102956.56;4988844;28;20379;-76
2021/07/11 04:38:41;;;;;;;23.40;13.52;;;17.00;99.90;;;15.79;100.00;102994.44;4972924;28;20047;-76
2021/07/11 04:41:09;;;;;;;20.90;12.25;;;17.10;99.90;;;15.92;100.00;102999.34;4938357;28;21202;-76
2021/07/11 04:43:37;;;;;;;19.30;12.25;;;17.10;99.90;;;15.94;100.00;102993.06;4966958;28;20415;-76
2021/07/11 04:46:03;;;;;;;30.75;12.00;;;17.20;99.90;;;16.02;100.00;102974.19;4949455;28;20028;-76
2021/07/11 04:48:29;;;;;;;18.00;11.05;;;17.30;99.90;;;16.02;100.00;102958.25;4972014;28;20069;-76
2021/07/11 04:50:56;;;;;;;14.65;10.48;;;17.30;99.90;;;16.16;100.00;102989.69;4977784;28;20119;-76
2021/07/11 04:53:22;;;;;;;18.70;10.75;;;17.50;99.90;;;16.27;100.00;102938.81;4895945;28;20519;-76
2021/07/11 04:55:49;;;;;;;17.70;10.00;;;17.50;99.90;;;16.35;100.00;102849.88;5007053;28;20469;-76
2021/07/11 04:58:17;;;;;;;16.38;8.95;;;17.70;99.90;;;16.48;100.00;102854.72;4895060;28;20044;-76
2021/07/11 05:00:44;;;;;;;15.75;8.68;;;17.80;99.90;;;16.60;100.00;102841.81;4881137;28;20106;-76
2021/07/11 05:03:10;;;;;;;15.23;7.60;;;17.90;99.90;;;16.72;100.00;103100.34;4893131;28;20129;-76
2021/07/11 05:05:36;;;;;;;12.35;8.80;;;18.00;99.90;;;16.80;100.00;105374.66;4956092;28;20025;-76
2021/07/11 05:08:04;;;;;;;19.30;8.95;;;18.10;99.90;;;16.87;100.00;104661.16;4984687;28;20071;-76
2021/07/11 05:10:31;;;;;;;15.55;8.50;;;18.20;99.90;;;16.89;100.00;104197.13;4886400;28;20040;-76
2021/07/11 05:13:00;;;;;;;13.95;8.20;;;18.30;99.90;;;16.98;100.00;104053.19;4901107;28;20503;-76
2021/07/11 05:15:26;;;;;;;13.23;7.47;;;18.30;99.90;;;17.06;100.00;103895.94;4894485;28;20043;-76
2021/07/11 05:17:52;;;;;;;14.07;8.10;;;18.40;99.90;;;17.09;100.00;104483.44;4923811;28;20057;-76
2021/07/11 05:20:18;;;;;;;11.32;7.88;;;18.50;99.90;;;17.20;100.00;104036.75;4940414;28;20209;-76
2021/07/11 05:22:44;;;;;;;17.17;8.40;;;18.50;99.90;;;17.22;100.00;103888.47;4879800;28;20024;-76
2021/07/11 05:25:11;;;;;;;12.82;7.43;;;18.60;99.90;;;17.30;100.00;103737.34;4884327;28;20024;-76
2021/07/11 05:27:39;;;;;;;8.90;7.25;;;18.60;99.90;;;17.24;100.00;103505.00;4946862;28;20043;-76
2021/07/11 05:30:07;;;;;;;14.98;8.18;;;18.60;99.90;;;17.37;100.00;103267.53;4893697;28;20467;-76
2021/07/11 05:32:33;;;;;;;13.52;7.72;;;18.70;99.90;;;17.36;100.00;103295.06;4884911;28;20058;-76
2021/07/11 05:34:59;;;;;;;12.23;8.25;;;18.70;99.90;;;17.49;100.00;103289.31;4958990;28;20027;-76
2021/07/11 05:37:25;;;;;;;13.65;8.20;;;18.80;99.90;;;17.59;100.00;103461.25;4903498;28;20099;-76
2021/07/11 05:39:51;;;;;;;11.38;7.47;;;18.80;99.90;;;17.60;100.00;103317.34;4882574;28;20069;-76
2021/07/11 05:42:24;;;;;;;9.95;7.55;;;19.00;99.90;;;17.79;100.00;103370.81;4901628;28;20165;-77
2021/07/11 05:44:50;;;;;;;9.60;7.07;;;19.10;99.90;;;17.96;100.00;103618.19;4952164;28;20108;-76
2021/07/11 05:47:24;;;;;;;11.52;7.15;;;19.30;99.90;;;18.07;100.00;103433.88;4923565;28;20119;-76
2021/07/11 05:49:50;;;;;;;9.82;6.80;;;19.40;99.90;;;18.19;100.00;103276.09;4924441;28;20034;-76
2021/07/11 05:52:16;;;;;;;9.68;6.90;;;19.60;99.90;;;18.28;100.00;103276.69;4942820;28;20018;-76
2021/07/11 05:54:42;;;;;;;10.93;6.53;;;19.50;99.90;;;18.10;100.00;103219.59;4952195;28;20122;-76
2021/07/11 05:57:08;;;;;;;14.38;6.40;;;19.60;99.90;;;18.26;100.00;103067.88;4887580;28;20391;-76
2021/07/11 05:59:36;;;;;;;11.63;6.75;;;19.70;99.90;;;18.39;100.00;103077.09;4903937;28;20435;-76
2021/07/11 06:02:05;;;;;;;13.40;6.32;;;19.90;99.90;;;18.57;100.00;103280.84;4904129;28;20024;-76
2021/07/11 06:04:31;;;;;;;13.07;6.47;;;19.90;99.90;;;18.44;100.00;103219.13;4906094;28;20048;-76
2021/07/11 06:06:57;;;;;;;11.38;6.80;;;19.90;99.90;;;18.58;100.00;103093.19;4894514;28;20046;-76
2021/07/11 06:09:22;;;;;;;10.88;6.60;;;20.00;99.90;;;18.77;100.00;102997.19;4994627;28;20023;-76
2021/07/11 06:11:48;;;;;;;9.95;6.53;;;20.20;99.90;;;18.93;100.00;103070.31;4986363;28;20027;-76
2021/07/11 06:14:17;;;;;;;13.32;6.38;;;20.30;99.90;;;19.15;100.00;103021.25;4892985;28;20044;-76
2021/07/11 06:16:45;;;;;;;15.68;7.07;;;20.60;99.90;;;19.47;98.97;103043.78;4892378;28;20035;-76
2021/07/11 06:19:13;;;;;;;12.40;6.38;;;20.80;99.90;;;19.51;97.67;103077.44;4951630;28;20491;-76
2021/07/11 06:21:39;;;;;;;11.90;6.07;;;20.90;99.90;;;19.57;94.83;103002.34;5026212;28;20491;-76
2021/07/11 06:24:05;;;;;;;10.10;6.35;;;21.10;99.90;;;19.71;94.45;103605.78;4897627;28;20600;-77
2021/07/11 06:26:31;;;;;;;10.32;5.78;;;21.40;99.90;;;20.34;93.83;103498.81;4918944;28;20041;-76
2021/07/11 06:28:57;;;;;;;15.80;5.63;;;22.00;99.90;;;20.84;89.14;103741.19;4954520;28;20115;-77
2021/07/11 06:31:24;;;;;;;9.73;6.00;;;22.20;99.90;;;21.18;86.32;103868.34;4878707;28;20058;-76
2021/07/11 06:33:50;;;;;;;10.65;5.40;;;22.70;99.90;;;21.10;85.94;103766.84;4924822;28;20035;-76
2021/07/11 06:36:16;;;;;;;8.30;5.45;;;22.80;99.90;;;21.16;84.30;103650.53;4894493;28;20050;-76
2021/07/11 06:38:42;;;;;;;13.73;5.55;;;22.60;99.90;;;21.01;86.18;103452.03;4912994;28;20048;-76
2021/07/11 06:41:08;;;;;;;9.88;5.07;;;22.10;99.90;;;20.08;90.81;103326.97;4890270;28;20021;-76
2021/07/11 06:43:34;;;;;;;8.05;5.57;;;22.00;99.90;;;20.38;89.44;103141.00;4995010;28;20107;-77
2021/07/11 06:46:00;;;;;;;8.90;5.50;;;21.90;99.90;;;20.51;90.38;103029.72;4894215;28;21517;-77
2021/07/11 06:48:29;;;;;;;8.40;5.88;;;22.10;99.90;;;21.10;87.60;102996.22;4899705;28;20023;-76
2021/07/11 06:50:55;;;;;;;8.52;5.03;;;23.20;99.90;;;22.05;82.39;103014.06;4910597;28;20066;-77
2021/07/11 06:53:21;;;;;;;8.40;4.75;;;24.00;99.90;;;22.74;81.20;103124.50;5013280;28;20034;-77
2021/07/11 06:55:47;;;;;;;7.88;5.07;;;24.80;99.90;;;23.89;77.67;103581.94;4975780;28;20377;-77
2021/07/11 06:58:13;;;;;;;9.43;4.32;;;25.80;99.90;;;25.52;68.51;108399.00;4882752;28;20038;-77
2021/07/11 07:00:39;;;;;;;6.32;4.47;;;26.90;99.90;;;26.52;66.52;107344.97;4999067;28;20114;-77
2021/07/11 07:03:05;;;;;;;7.05;4.78;;;27.80;99.90;;;25.75;66.03;104691.34;4887182;28;20036;-77
2021/07/11 07:05:31;;;;;;;5.45;3.78;;;27.60;99.90;;;25.77;63.39;104027.28;4927370;28;20307;-77
2021/07/11 07:07:57;;;;;;;8.40;3.80;;;27.10;99.90;;;26.22;63.70;103844.53;4886984;28;20047;-77
2021/07/11 07:10:23;;;;;;;7.20;4.80;;;27.50;99.90;;;27.48;58.97;108129.28;4889920;28;20123;-77
2021/07/11 07:12:50;;;;;;;7.30;4.18;;;27.40;99.90;;;25.34;64.60;104299.50;4937384;28;20039;-77
2021/07/11 07:15:16;;;;;;;4.90;4.00;;;27.30;99.90;;;26.75;61.66;103863.59;4894002;28;20499;-77
2021/07/11 07:17:44;;;;;;;4.40;3.60;;;27.50;99.90;;;25.25;63.62;103531.44;4955423;28;20054;-77
2021/07/11 07:20:12;;;;;;;7.28;4.28;;;27.00;99.90;;;25.30;64.47;103461.91;4931782;28;20457;-77
2021/07/11 07:22:39;;;;;;;5.97;4.10;;;26.00;99.90;;;23.78;64.96;103275.00;4971894;28;20392;-77
2021/07/11 07:25:12;;;;;;;6.78;3.90;;;25.90;99.90;;;25.88;62.04;103045.03;4920225;28;20039;-77
2021/07/11 07:27:39;;;;;;;7.25;4.10;;;25.90;99.90;;;24.81;64.25;102964.75;4977647;28;20036;-77
2021/07/11 07:30:05;;;;;;;7.78;3.90;;;25.50;99.90;;;24.45;62.62;102934.09;5000922;28;20100;-77
2021/07/11 07:32:31;;;;;;;4.70;3.60;;;25.50;99.90;;;24.61;63.89;102836.06;4871201;28;20035;-77
2021/07/11 07:34:58;;;;;;;6.90;4.10;;;25.70;99.90;;;24.78;66.77;102800.66;4999985;28;20460;-77
2021/07/11 07:37:24;;;;;;;7.07;3.75;;;25.80;99.90;;;24.88;64.80;102741.53;4975332;28;20031;-77
2021/07/11 07:39:50;;;;;;;6.55;3.90;;;25.80;99.90;;;25.35;63.46;102753.25;4995915;28;20060;-76
2021/07/11 07:42:19;;;;;;;8.57;4.13;;;25.90;99.90;;;25.78;58.75;102730.97;4901844;28;20495;-77
2021/07/11 07:44:45;;;;;;;6.47;4.40;;;26.10;99.90;;;26.00;58.44;102724.72;4974687;28;20045;-77
2021/07/11 07:47:11;;;;;;;4.47;3.65;;;26.60;99.90;;;26.68;58.29;102711.97;4974087;28;20185;-77
2021/07/11 07:49:37;;;;;;;4.88;3.30;;;27.20;99.90;;;26.38;57.37;103796.63;4992240;28;20470;-77
2021/07/11 07:52:04;;;;;;;7.68;3.97;;;26.70;99.90;;;26.37;56.04;103054.78;4953890;28;20083;-77
2021/07/11 07:54:30;;;;;;;5.53;3.58;;;27.20;99.90;;;26.66;57.54;102869.78;4905777;28;20038;-77
2021/07/11 07:56:58;;;;;;;5.82;4.03;;;27.80;99.90;;;27.03;52.93;102786.50;4889131;28;20032;-77
2021/07/11 07:59:24;;;;;;;6.05;3.55;;;26.90;99.90;;;26.43;56.74;102760.88;4965924;28;20040;-77
2021/07/11 08:01:50;;;;;;;4.53;3.70;;;27.50;99.90;;;27.73;51.19;102735.41;4972111;28;20526;-77
2021/07/11 08:04:20;;;;;;;4.38;3.53;;;27.60;99.90;;;27.60;50.58;103152.34;4929340;28;20107;-77
2021/07/11 08:06:48;;;;;;;5.15;3.38;;;27.90;99.90;;;27.39;51.86;102809.56;4903474;28;20031;-77
2021/07/11 08:09:16;;;;;;;10.40;3.90;;;28.10;99.90;;;27.35;51.22;102726.13;4905702;28;20507;-77
2021/07/11 08:11:44;;;;;;;4.28;3.55;;;27.80;99.90;;;27.27;54.81;102709.69;4957839;28;20038;-77
2021/07/11 08:14:11;;;;;;;10.20;3.60;;;28.10;99.90;;;27.05;53.35;102643.94;4928630;28;20038;-77
2021/07/11 08:16:37;;;;;;;5.18;3.53;;;28.20;99.90;;;28.18;51.85;102695.25;4894327;28;20055;-77
2021/07/11 08:19:08;;;;;;;5.63;3.40;;;27.90;99.90;;;27.10;52.36;102587.59;4992113;28;20116;-77
2021/07/11 08:21:34;;;;;;;6.97;3.35;;;27.40;99.90;;;26.48;53.47;102592.06;4866735;28;20032;-77
2021/07/11 08:24:00;;;;;;;4.68;3.47;;;26.70;99.90;;;26.00;54.15;102541.19;4901856;28;22333;-77
2021/07/11 08:26:26;;;;;;;5.43;3.25;;;26.90;99.90;;;26.03;53.92;102515.81;4896154;28;20507;-77
2021/07/11 08:28:52;;;;;;;6.68;3.75;;;27.30;99.90;;;26.54;52.76;102552.84;4894438;28;20035;-77
2021/07/11 08:31:18;;;;;;;4.47;3.60;;;27.30;99.90;;;25.99;53.56;102482.81;4944447;28;20444;-77
2021/07/11 08:33:44;;;;;;;7.82;3.22;;;27.60;99.90;;;26.28;51.85;102491.13;4965213;28;20039;-76
2021/07/11 08:36:12;;;;;;;5.45;3.40;;;27.00;99.90;;;26.10;51.41;102466.56;4991200;28;20036;-77
2021/07/11 08:38:38;;;;;;;5.70;3.28;;;27.30;99.90;;;26.99;48.64;102534.47;4974654;28;20450;-77
2021/07/11 08:41:04;;;;;;;4.25;3.47;;;27.70;99.30;;;27.23;47.90;103081.44;4893755;28;20055;-77
2021/07/11 08:43:30;;;;;;;5.97;3.20;;;28.00;99.90;;;27.31;50.13;102598.41;4917041;28;20028;-77
2021/07/11 08:45:56;;;;;;;5.78;3.00;;;27.90;99.90;;;27.05;50.27;102545.75;4973363;28;20451;-77
2021/07/11 08:48:22;;;;;;;6.43;2.70;;;27.30;99.90;;;26.28;52.75;102490.28;4961012;28;20030;-77
2021/07/11 08:50:48;;;;;;;7.80;3.20;;;27.00;99.90;;;25.65;51.65;102407.38;4959434;28;20036;-77
2021/07/11 08:53:16;;;;;;;5.30;3.08;;;26.60;99.90;;;25.15;54.50;102348.59;4877469;28;20036;-77
2021/07/11 08:55:43;;;;;;;4.78;3.42;;;26.50;99.90;;;25.75;51.80;102375.97;4870271;28;20036;-77
2021/07/11 08:58:13;;;;;;;4.28;3.22;;;26.60;99.90;;;26.11;50.88;102384.63;4963212;28;20681;-77
2021/07/11 09:00:53;;;;;;;6.85;3.03;;;27.00;99.90;;;26.34;52.98;102354.72;4980465;28;20463;-77
2021/07/11 09:03:42;;;;;;;5.55;3.55;;;27.40;99.90;;;26.80;54.55;102361.44;4915010;28;20527;-77
2021/07/11 09:06:27;;;;;;;4.80;3.17;;;28.20;99.90;;;27.48;52.44;102385.91;4906140;28;20123;-77
2021/07/11 09:09:33;;;;;;;4.03;2.67;;;28.10;99.90;;;26.70;51.87;102310.09;4919048;28;20052;-77
2021/07/11 09:12:35;;;;;;;6.20;3.25;;;27.70;99.90;;;26.91;53.30;102326.22;4886633;28;20459;-77
2021/07/11 09:16:09;;;;;;;8.18;3.20;;;27.20;99.90;;;26.31;51.92;102274.84;4889191;28;20119;-77
2021/07/11 09:19:38;;;;;;;4.47;3.17;;;27.20;99.90;;;26.40;56.15;102274.03;4880014;28;20074;-77
2021/07/11 09:23:22;;;;;;;;;;;27.10;99.90;;;26.51;51.98;102253.31;4877846;28;20360;-77
2021/07/11 09:26:54;;;;;;;4.22;3.13;;;26.90;99.90;;;26.37;53.20;102241.91;4871350;28;19915;-77
2021/07/11 09:30:31;;;;;;;4.50;3.22;;;27.00;99.90;;;26.23;51.84;102199.09;4861203;28;20194;-77
2021/07/11 09:33:58;;;;;;;4.45;3.10;;;26.70;99.90;;;25.65;52.24;102242.84;4888195;28;20043;-77
2021/07/11 09:36:55;;;;;;;5.70;3.40;;;26.80;99.00;;;26.03;51.43;102441.09;4905459;28;20058;-77
2021/07/11 09:40:24;;;;;;;3.63;2.85;;;27.10;99.70;;;26.72;49.04;102440.50;4955817;28;20520;-77
2021/07/11 09:43:48;;;;;;;4.50;3.53;;;27.00;98.70;;;26.24;49.55;102370.91;4885407;28;20542;-77
2021/07/11 09:50:56;;;;;;;4.85;3.00;;;26.80;99.90;;;26.19;54.15;102329.94;4872308;28;20134;-77
2021/07/11 09:53:50;;;;;;;3.78;2.97;;;27.30;99.40;;;26.22;49.93;102299.09;4881208;28;20047;-77
2021/07/11 09:56:55;;;;;;;4.45;3.22;;;27.00;98.40;;;25.83;51.43;102259.28;4867663;28;20407;-77
2021/07/11 10:00:12;;;;;;;3.67;3.03;;;27.20;99.50;;;26.83;48.28;102379.25;4856101;28;20044;-77
2021/07/11 10:03:21;;;;;;;6.05;2.80;;;27.50;98.80;;;27.38;48.87;102393.16;4858469;28;20475;-77
2021/07/11 10:06:10;;;;;;;4.68;3.05;;;27.80;95.60;;;26.31;47.23;102284.81;4900977;28;20070;-77
2021/07/11 10:08:54;;;;;;;4.15;2.80;;;27.50;97.30;;;27.08;48.00;104860.34;4865460;28;20101;-76
2021/07/11 10:11:40;;;;;;;4.32;2.75;;;28.00;99.10;;;27.78;48.03;104140.84;4914352;28;20220;-77
2021/07/11 10:14:26;;;;;;;5.40;3.00;;;28.10;96.40;;;27.00;47.89;103268.00;4914635;28;20047;-77
2021/07/11 10:17:01;;;;;;;3.70;3.00;;;28.10;97.20;;;27.78;47.94;103104.00;4856949;28;20040;-77
2021/07/11 10:19:41;;;;;;;3.92;2.92;;;28.50;98.40;;;28.09;45.46;102961.47;4882931;28;20374;-77
2021/07/11 10:22:28;;;;;;;4.45;3.25;;;28.50;97.80;;;27.30;50.57;102836.53;4925810;28;20080;-77
2021/07/11 10:25:32;;;;;;;3.70;2.88;;;28.40;98.20;;;27.65;47.45;102802.91;4877005;28;20043;-77
2021/07/11 10:28:30;;;;;;;3.45;2.97;;;28.40;98.70;;;28.11;48.62;103371.16;4887693;28;20130;-77